Coates, United Kingdom
Current Conditions -  °F | °C
As of 7:03 PM on Friday 24 Oct 2014 (Local Time) from EGVA Reporting Station
Overcast Overcast  
Wind Chill: 54°   Ceiling: 4100
Heat Index: 54°   Visibility: 6mi
Dew Point: 52°   Wind: 6mph
Humidity: 94%   Direction: 320°NW
Pressure: 29.93"   Gusts: NA
Location:  51.71°N, 2.03°W
Report Text: EGVA 241803Z AUTO 32005KT 9999 SCT013 OVC041 12/11 A2993 RMK AO2
Loading
Personal Weather Stations






























Interactive Weather Map New forecast layout! Learn more

10-Day Weather Forecast

Advertisements
Track Severe Weather on mobile